Aviation Digital Data Service (ADDS)

Output produced by METARs form (1559 UTC 29 July 2016)
found at http://aviationweather.gov/adds/metars/
 
KSAN 291451Z 2915/3018 VRB03KT P6SM FEW010 FEW250 
     FM291800 28009KT P6SM FEW200 
     FM300200 VRB04KT P6SM FEW012 FEW200 
     FM300800 VRB03KT P6SM BKN012 
     FM301600 20005KT P6SM FEW015